VRMM/MLE METAR and TAF weather

Enter ICAO airport designator
Station Type Date Time Source
VRMM METAR 2022/11/27 08:00 UTC NOAA

VRMM 270800Z 25008KT 9999 SCT018TCU 30/25 Q1008 NOSIG


Station Type Date Time Source
VRMM Decoded METAR 2022/11/27 08:00 UTC NOAA

Male, Maldives (VRMM) 04-12N 073-32E 2M
Nov 27, 2022 - 03:00 AM EST / 2022.11.27 0800 UTC
Wind: from the WSW (250 degrees) at 9 MPH (8 KT):0
Visibility: greater than 7 mile(s):0
Sky conditions: partly cloudy
Weather: Towering cumulus clouds observed
Temperature: 86 F (30 C)
Heat index: 96.8 F (36.0 C):1
Dew Point: 77 F (25 C)
Relative Humidity: 74%
Pressure (altimeter): 29.77 in. Hg (1008 hPa)
ob: VRMM 270800Z 25008KT 9999 SCT018TCU 30/25 Q1008 NOSIG
cycle: 8

Station Type Date Time Source
VRMM TAF 2022/11/27 06:45 UTC NOAA

TAF VRMM 270500Z 2706/2812 20005KT 9999 FEW018
TEMPO 2706/2712 FEW019CB

Example: see airport list